• Join FlightAware (Why Join?)
  • Login
  • US Flag 
08:02PM EST


 

Airport Tracker/Info


-or-


 

Live Flight TrackerFlight Track Log ✈ VNR160 ✈ 26-Apr-2013 ✈ KPDK - KUOX

Flight Track Log - Related Links

Times and Time Zones

All times are in EDT time to prevent confusion due to time zone crossing. See the VNR160 flight status page for this flight to view local times or setup timezone preferences in your user account.

Time Position Orientation Groundspeed Altitude Reporting Facility
EDT Latitude Longitude Course Direction KTS MPH feet Rate Location/Type
01:59PM 33.9167 -84.3000 292° West 160 184 2,200  Level Atlanta TRACON
02:00PM 33.9333 -84.3500 292° West 212 244 3,700 900 Climbing Atlanta TRACON
02:01PM 33.9333 -84.4333 270° West 252 290 4,000 120 Climbing Atlanta TRACON
02:02PM 33.9167 -84.5167 256° West 267 307 4,000  Level Atlanta TRACON
02:03PM 33.9167 -84.6000 270° West 264 304 4,000 240 Level Atlanta TRACON
02:04PM 33.9000 -84.7000 259° West 271 312 4,500 480 Climbing Atlanta TRACON
02:05PM 33.8833 -84.7833 256° West 268 308 5,000 240 Climbing Atlanta TRACON
02:06PM 33.8667 -84.8667 256° West 274 315 5,000 540 Level Atlanta TRACON
02:07PM 33.8600 -84.9294 263° West 264 304 6,000 1,560 Climbing Atlanta Center
02:08PM 33.8469 -85.0017 258° West 258 297 7,700 1,800 Climbing Atlanta Center
02:09PM 33.8317 -85.0767 256° West 247 284 9,700 1,620 Climbing Atlanta Center
02:10PM 33.8142 -85.1539 255° West 237 273 11,000 600 Climbing Atlanta Center
02:11PM 33.8031 -85.2439 262° West 262 302 11,000 600 Level Atlanta Center
02:12PM 33.7978 -85.3361 266° West 276 318 12,300 1,800 Climbing Atlanta Center
02:13PM 33.7950 -85.4161 268° West 256 295 14,600 2,220 Climbing Atlanta Center
02:14PM 33.8003 -85.4936 275° West 230 265 16,800 1,800 Climbing Atlanta Center
02:15PM 33.8142 -85.5639 283° West 214 246 18,300 1,680 Climbing Atlanta Center
02:16PM 33.8236 -85.6317 280° West 214 246 20,200 1,800 Climbing Atlanta Center
02:17PM 33.8353 -85.7019 281° West 219 252 21,900 1,560 Climbing Atlanta Center
02:18PM 33.8467 -85.7772 280° West 224 258 23,400 1,020 Climbing Atlanta Center
02:19PM 33.8561 -85.8425 280° West 224 258 24,000 300 Climbing Atlanta Center
02:20PM 33.8714 -85.9353 281° West 247 284 24,000  Level Atlanta Center
02:21PM 33.8867 -86.0331 281° West 282 325 24,000  Level Atlanta Center
02:22PM 33.9017 -86.1361 280° West 302 348 24,000  Level Atlanta Center
02:23PM 33.9186 -86.2392 281° West 316 364 24,000  Level Atlanta Center
02:24PM 33.9356 -86.3422 281° West 316 364 24,000  Level Atlanta Center
02:25PM 33.9503 -86.4453 280° West 316 364 24,000  Level Atlanta Center
02:26PM 33.9650 -86.5461 280° West 316 364 24,000  Level Atlanta Center
02:27PM 33.9794 -86.6467 280° West 316 364 24,000  Level Atlanta Center
02:28PM 33.9961 -86.7522 281° West 316 364 24,000  Level Atlanta Center
02:29PM 34.0125 -86.8531 281° West 316 364 24,000  Level Atlanta Center
02:31PM 34.0508 -87.1081 280° West 317 365 24,000  Level Memphis Center
02:32PM 34.0658 -87.2053 281° West 308 354 24,000  Level Memphis Center
02:33PM 34.0806 -87.2900 282° West 303 349 24,000  Level Memphis Center
02:34PM 34.0933 -87.3950 278° West 313 360 24,000  Level Memphis Center
02:35PM 34.1106 -87.4972 282° West 318 366 24,000  Level Memphis Center
02:36PM 34.1233 -87.5997 279° West 313 360 24,000  Level Memphis Center
02:37PM 34.1403 -87.7122 280° West 313 360 24,000  Level Memphis Center
02:38PM 34.1569 -87.8169 281° West 313 360 24,000  Level Memphis Center
02:39PM 34.1694 -87.9194 278° West 313 360 24,000  Level Memphis Center
02:40PM 34.1819 -88.0247 278° West 313 360 24,000  Level Memphis Center
02:41PM 34.1944 -88.1297 278° West 313 360 24,000  Level Memphis Center
02:42PM 34.2086 -88.2297 280° West 325 374 24,000  Level Memphis Center
02:43PM 34.2250 -88.3325 281° West 330 380 24,000  Level Memphis Center
02:44PM 34.2372 -88.4378 278° West 330 380 24,000 -540 Level Memphis Center
02:45PM 34.2533 -88.5428 281° West 330 380 23,000 -1,680 Descending Memphis Center
02:46PM 34.2672 -88.6456 279° West 325 374 20,700 -2,340 Descending Memphis Center
02:47PM 34.2811 -88.7433 280° West 312 359 18,400 -2,220 Descending Memphis Center
02:48PM 34.2928 -88.8336 279° West 295 339 16,300 -2,220 Descending Memphis Center
02:49PM 34.3042 -88.9239 279° West 280 322 14,000 -2,340 Descending Memphis Center
02:50PM 34.3178 -89.0167 280° West 275 316 11,600 -2,400 Descending Memphis Center
02:51PM 34.3292 -89.1072 279° West 275 316 9,300 -1,860 Descending Memphis Center
02:52PM 34.3406 -89.2050 278° West 275 316 8,000 -600 Descending Memphis Center
02:53PM 34.3517 -89.2956 278° West 275 316 8,100 60 Climbing Memphis Center